Time;durP1;ratioP1;P1;durP2;ratioP2;P2;SDS_P1;SDS_P2;PMS_P1;PMS_P2;Temp;Humidity;BMP_temperature;BMP_pressure;BME280_temperature;BME280_humidity;BME280_pressure;Samples;Min_cycle;Max_cycle;Signal;HPM_P1;HPM_P2
2024/03/02 00:00:36;;;;;;;13.33;9.30;;;7.80;99.90;;;;;;5033419;28;20209;-56
2024/03/02 00:03:03;;;;;;;11.57;9.07;;;7.80;99.90;;;;;;5032585;28;20692;-56
2024/03/02 00:05:30;;;;;;;10.60;8.67;;;7.90;99.90;;;;;;5033386;28;20218;-57
2024/03/02 00:07:59;;;;;;;11.00;8.77;;;7.90;99.90;;;;;;5033115;28;20202;-61
2024/03/02 00:10:29;;;;;;;10.53;8.57;;;8.00;99.90;;;;;;5033138;28;20683;-56
2024/03/02 00:12:56;;;;;;;10.20;7.80;;;7.90;99.90;;;;;;5032972;28;20202;-58
2024/03/02 00:15:41;;;;;;;9.43;8.37;;;7.90;99.90;;;;;;5025578;28;20234;-55
2024/03/02 00:18:09;;;;;;;11.23;8.70;;;8.00;99.90;;;;;;5033122;28;20288;-57
2024/03/02 00:20:36;;;;;;;10.90;8.70;;;7.90;99.90;;;;;;5033299;28;20218;-55
2024/03/02 00:23:05;;;;;;;11.03;8.90;;;7.80;99.90;;;;;;5032742;28;20222;-56
2024/03/02 00:25:39;;;;;;;11.10;8.20;;;7.80;99.90;;;;;;5032751;28;20799;-55
2024/03/02 00:28:07;;;;;;;11.97;9.43;;;7.70;99.90;;;;;;5032861;28;20210;-55
2024/03/02 00:30:51;;;;;;;11.83;8.47;;;7.60;99.90;;;;;;5032827;28;20203;-56
2024/03/02 00:33:19;;;;;;;12.43;8.20;;;7.50;99.90;;;;;;5032596;28;20476;-55
2024/03/02 00:35:46;;;;;;;9.53;7.80;;;7.50;99.90;;;;;;5032574;28;20711;-56
2024/03/02 00:38:15;;;;;;;10.53;8.50;;;7.60;99.90;;;;;;5032619;28;20631;-57
2024/03/02 00:40:42;;;;;;;12.37;8.20;;;7.60;99.90;;;;;;5032938;28;20230;-56
2024/03/02 00:43:24;;;;;;;9.97;8.07;;;7.70;99.90;;;;;;5032245;28;20218;-57
2024/03/02 00:45:50;;;;;;;11.57;8.30;;;7.70;99.90;;;;;;5032400;28;20287;-58
2024/03/02 00:48:17;;;;;;;12.07;8.60;;;7.80;99.90;;;;;;5032445;28;20213;-57
2024/03/02 00:50:44;;;;;;;10.17;8.20;;;7.70;99.90;;;;;;5032680;28;20206;-56
2024/03/02 00:53:14;;;;;;;9.73;8.47;;;7.70;99.90;;;;;;5031351;28;20229;-56
2024/03/02 00:55:44;;;;;;;10.57;8.80;;;7.70;99.90;;;;;;5032318;28;20218;-56
2024/03/02 00:58:10;;;;;;;12.53;9.10;;;7.70;99.90;;;;;;5032149;28;20202;-55
2024/03/02 01:00:37;;;;;;;9.57;8.00;;;7.70;99.90;;;;;;5032414;28;20221;-55
2024/03/02 01:03:04;;;;;;;10.97;8.33;;;7.70;99.90;;;;;;5031967;28;20225;-55
2024/03/02 01:05:31;;;;;;;10.03;8.17;;;7.70;99.90;;;;;;5032039;28;20794;-56
2024/03/02 01:07:58;;;;;;;11.03;8.20;;;7.70;99.90;;;;;;5032270;28;20290;-56
2024/03/02 01:10:26;;;;;;;10.53;8.87;;;7.70;99.90;;;;;;5032351;28;20198;-56
2024/03/02 01:12:53;;;;;;;9.70;8.03;;;7.60;99.90;;;;;;5032063;28;20616;-58
2024/03/02 01:15:20;;;;;;;10.00;8.10;;;7.60;99.90;;;;;;5032050;28;20222;-56
2024/03/02 01:17:47;;;;;;;11.23;9.13;;;7.60;99.90;;;;;;5032002;28;20638;-57
2024/03/02 01:20:14;;;;;;;11.40;9.00;;;7.60;99.90;;;;;;5031950;28;20202;-56
2024/03/02 01:22:40;;;;;;;12.47;9.30;;;7.70;99.90;;;;;;5031613;28;20218;-56
2024/03/02 01:25:09;;;;;;;10.83;9.37;;;7.60;99.90;;;;;;5031383;28;20218;-56
2024/03/02 01:27:37;;;;;;;11.37;9.10;;;7.40;99.90;;;;;;5031748;28;20202;-58
2024/03/02 01:30:04;;;;;;;11.23;9.07;;;7.40;99.90;;;;;;5031818;28;20268;-58
2024/03/02 01:32:30;;;;;;;11.10;9.30;;;7.30;99.90;;;;;;5031578;28;20206;-55
2024/03/02 01:34:57;;;;;;;13.20;10.47;;;7.30;99.90;;;;;;5031727;28;20610;-56
2024/03/02 01:37:24;;;;;;;11.73;9.33;;;7.30;99.90;;;;;;5031718;28;20248;-56
2024/03/02 01:39:50;;;;;;;11.37;9.57;;;7.40;99.90;;;;;;5031622;28;20229;-57
2024/03/02 01:42:17;;;;;;;10.57;8.77;;;7.40;99.90;;;;;;5031528;28;20221;-56
2024/03/02 01:44:45;;;;;;;11.10;9.03;;;7.50;99.90;;;;;;5031491;28;20793;-59
2024/03/02 01:47:11;;;;;;;12.53;9.63;;;7.50;99.90;;;;;;5031739;28;20210;-55
2024/03/02 01:49:40;;;;;;;12.20;9.17;;;7.50;99.90;;;;;;5031789;28;20199;-57
2024/03/02 01:52:07;;;;;;;11.83;9.60;;;7.50;99.90;;;;;;5031227;28;20214;-56
2024/03/02 01:54:34;;;;;;;12.67;9.90;;;7.60;99.90;;;;;;5031368;28;20222;-56
2024/03/02 01:57:01;;;;;;;11.97;9.83;;;7.60;99.90;;;;;;5031653;28;20289;-56
2024/03/02 01:59:28;;;;;;;12.13;9.97;;;7.70;99.90;;;;;;5031725;28;20384;-56
2024/03/02 02:01:56;;;;;;;11.73;9.23;;;7.70;99.90;;;;;;5031273;28;20206;-56
2024/03/02 02:04:27;;;;;;;12.27;9.43;;;7.70;99.90;;;;;;5033991;28;20218;-57
2024/03/02 02:06:53;;;;;;;12.63;10.23;;;7.70;99.90;;;;;;5035545;28;20202;-56
2024/03/02 02:09:20;;;;;;;11.30;9.27;;;7.70;99.90;;;;;;5035355;28;20209;-57
2024/03/02 02:11:47;;;;;;;10.87;9.13;;;7.70;99.90;;;;;;5035389;28;20206;-56
2024/03/02 02:14:14;;;;;;;12.07;9.47;;;7.60;99.90;;;;;;5035433;28;20222;-56
2024/03/02 02:16:40;;;;;;;11.40;8.70;;;7.60;99.90;;;;;;5035386;28;20214;-60
2024/03/02 02:19:09;;;;;;;12.07;9.80;;;7.50;99.90;;;;;;5035593;28;20206;-57
2024/03/02 02:21:37;;;;;;;10.50;9.00;;;7.40;99.90;;;;;;5035299;28;20252;-56
2024/03/02 02:24:04;;;;;;;11.67;9.27;;;7.40;99.90;;;;;;5035064;28;20268;-57
2024/03/02 02:26:31;;;;;;;11.23;9.73;;;7.40;99.90;;;;;;5035563;28;20205;-56
2024/03/02 02:28:57;;;;;;;14.23;10.17;;;7.40;99.90;;;;;;5035414;28;20205;-55
2024/03/02 02:31:24;;;;;;;10.77;9.17;;;7.30;99.90;;;;;;5035067;28;20202;-54
2024/03/02 02:33:51;;;;;;;11.33;9.07;;;7.20;99.90;;;;;;5034721;28;20256;-56
2024/03/02 02:36:17;;;;;;;11.50;9.23;;;7.20;99.90;;;;;;5035175;28;20265;-56
2024/03/02 02:38:48;;;;;;;12.00;9.70;;;7.20;99.90;;;;;;5035118;28;20206;-56
2024/03/02 02:41:15;;;;;;;12.10;9.00;;;7.20;99.90;;;;;;5034805;28;20207;-56
2024/03/02 02:43:41;;;;;;;12.47;9.53;;;7.10;99.90;;;;;;5035144;28;20225;-56
2024/03/02 02:46:08;;;;;;;9.67;8.60;;;7.10;99.90;;;;;;5034612;28;20284;-55
2024/03/02 02:48:35;;;;;;;11.87;9.10;;;7.10;99.90;;;;;;5034793;28;20213;-57
2024/03/02 02:51:02;;;;;;;11.77;9.53;;;7.00;99.90;;;;;;5034974;28;20229;-57
2024/03/02 02:53:28;;;;;;;12.60;9.33;;;6.90;99.90;;;;;;5034705;28;20195;-55
2024/03/02 02:55:56;;;;;;;10.40;8.57;;;6.90;99.90;;;;;;5034564;28;20218;-58
2024/03/02 02:58:23;;;;;;;11.80;8.77;;;6.90;99.90;;;;;;5034671;28;20198;-56
2024/03/02 03:00:50;;;;;;;11.53;8.93;;;6.90;99.90;;;;;;5034439;28;20202;-56
2024/03/02 03:03:16;;;;;;;10.27;8.50;;;6.70;99.90;;;;;;5034214;28;20225;-56
2024/03/02 03:05:43;;;;;;;12.50;10.20;;;6.60;99.90;;;;;;5034602;28;20248;-58
2024/03/02 03:08:10;;;;;;;11.97;9.03;;;6.40;99.90;;;;;;5034357;28;20203;-56
2024/03/02 03:10:36;;;;;;;12.40;9.63;;;6.20;99.90;;;;;;5034475;28;20675;-55
2024/03/02 03:13:07;;;;;;;12.23;9.80;;;6.10;99.90;;;;;;5033815;28;20198;-56
2024/03/02 03:15:36;;;;;;;11.47;9.03;;;6.10;99.90;;;;;;5033405;28;20226;-54
2024/03/02 03:18:03;;;;;;;12.77;10.30;;;6.20;99.90;;;;;;5034463;28;20206;-57
2024/03/02 03:20:30;;;;;;;13.67;10.03;;;6.20;99.90;;;;;;5034443;28;20252;-56
2024/03/02 03:22:57;;;;;;;13.90;10.20;;;6.30;99.90;;;;;;5033776;28;20646;-55
2024/03/02 03:25:24;;;;;;;12.03;9.83;;;6.30;99.90;;;;;;5034057;28;20226;-58
2024/03/02 03:27:52;;;;;;;12.43;9.97;;;6.40;99.90;;;;;;5034080;28;20257;-56
2024/03/02 03:30:20;;;;;;;12.43;9.70;;;6.40;99.90;;;;;;5033816;28;20556;-55
2024/03/02 03:32:48;;;;;;;12.97;10.70;;;6.40;99.90;;;;;;5033806;28;20202;-56
2024/03/02 03:35:15;;;;;;;11.83;9.27;;;6.30;99.90;;;;;;5033905;28;20226;-56
2024/03/02 03:37:42;;;;;;;12.73;10.40;;;6.20;99.90;;;;;;5033991;28;20202;-55
2024/03/02 03:40:10;;;;;;;11.90;10.03;;;6.20;99.90;;;;;;5033756;28;20228;-55
2024/03/02 03:42:37;;;;;;;12.23;9.90;;;6.20;99.90;;;;;;5033499;28;20587;-55
2024/03/02 03:45:04;;;;;;;11.83;9.47;;;6.20;99.90;;;;;;5049298;23;20227;-60
2024/03/02 03:47:33;;;;;;;12.67;9.90;;;6.20;99.90;;;;;;5025621;28;20252;-60
2024/03/02 03:50:00;;;;;;;15.37;10.30;;;6.10;99.90;;;;;;5025424;28;20344;-61
2024/03/02 03:52:27;;;;;;;13.10;9.53;;;6.10;99.90;;;;;;5021773;28;20207;-60
2024/03/02 03:54:53;;;;;;;13.73;10.20;;;6.10;99.90;;;;;;5021767;28;20719;-60
2024/03/02 03:57:20;;;;;;;15.60;10.73;;;6.20;99.90;;;;;;5023952;28;20218;-60
2024/03/02 03:59:47;;;;;;;13.93;10.70;;;6.20;99.90;;;;;;5025634;28;20210;-62
2024/03/02 04:02:14;;;;;;;14.00;10.73;;;6.20;99.90;;;;;;5023312;28;20253;-61
2024/03/02 04:04:42;;;;;;;14.53;10.50;;;6.10;99.90;;;;;;5021580;28;20226;-59
2024/03/02 04:07:08;;;;;;;12.77;10.23;;;6.10;99.90;;;;;;5022161;28;20599;-59
2024/03/02 04:09:35;;;;;;;15.03;11.20;;;6.10;99.90;;;;;;5024922;28;20202;-60
2024/03/02 04:12:01;;;;;;;16.13;11.47;;;6.00;99.90;;;;;;5024764;28;20209;-60
2024/03/02 04:14:28;;;;;;;15.07;10.23;;;6.00;99.90;;;;;;5021716;28;20207;-60
2024/03/02 04:16:55;;;;;;;13.90;10.80;;;5.90;99.90;;;;;;5021695;28;20203;-60
2024/03/02 04:19:22;;;;;;;13.23;10.27;;;5.90;99.90;;;;;;5023988;28;20207;-60
2024/03/02 04:21:50;;;;;;;13.20;10.57;;;5.90;99.90;;;;;;5024690;28;20264;-59
2024/03/02 04:24:16;;;;;;;13.27;10.97;;;5.80;99.90;;;;;;5022713;28;20222;-60
2024/03/02 04:26:43;;;;;;;14.23;10.77;;;5.70;99.90;;;;;;5021565;28;20262;-59
2024/03/02 04:29:10;;;;;;;14.30;11.10;;;5.70;99.90;;;;;;5022149;28;20634;-60
2024/03/02 04:31:36;;;;;;;13.87;10.47;;;5.70;99.90;;;;;;5024808;28;20203;-59
2024/03/02 04:34:03;;;;;;;13.57;10.87;;;5.70;99.90;;;;;;5024462;28;20203;-59
2024/03/02 04:36:29;;;;;;;14.50;11.30;;;5.60;99.90;;;;;;5024517;28;20222;-59
2024/03/02 04:38:57;;;;;;;14.10;11.00;;;5.60;99.90;;;;;;5024503;28;20221;-59
2024/03/02 04:41:24;;;;;;;13.47;9.87;;;5.50;99.90;;;;;;5021901;28;20210;-60
2024/03/02 04:43:51;;;;;;;14.83;11.20;;;5.50;99.90;;;;;;5020654;28;20708;-60
2024/03/02 04:46:17;;;;;;;15.67;11.93;;;5.50;99.90;;;;;;5022596;28;20230;-59
2024/03/02 04:48:44;;;;;;;14.47;11.57;;;5.50;99.90;;;;;;5024581;28;20202;-59
2024/03/02 04:51:11;;;;;;;16.80;11.50;;;5.50;99.90;;;;;;5023420;28;20206;-60
2024/03/02 04:53:38;;;;;;;17.17;12.13;;;5.50;99.90;;;;;;5020634;28;20233;-59
2024/03/02 04:56:39;;;;;;;17.00;12.50;;;5.50;99.90;;;;;;5021019;28;20575;-60
2024/03/02 04:59:07;;;;;;;17.97;12.40;;;5.40;99.90;;;;;;5017957;28;20202;-59
2024/03/02 05:01:34;;;;;;;17.33;12.80;;;5.40;99.90;;;;;;5024232;28;20292;-59
2024/03/02 05:04:00;;;;;;;18.53;13.77;;;5.40;99.90;;;;;;5023752;28;20305;-60
2024/03/02 05:06:27;;;;;;;16.57;12.67;;;5.50;99.90;;;;;;5020934;28;20227;-60
2024/03/02 05:08:53;;;;;;;18.97;13.07;;;5.50;99.90;;;;;;5020957;28;20207;-59
2024/03/02 05:11:53;;;;;;;19.63;14.17;;;5.50;99.90;;;;;;5022680;28;20214;-59
2024/03/02 05:14:19;;;;;;;19.53;13.00;;;5.50;99.90;;;;;;5021937;28;20668;-59
2024/03/02 05:16:46;;;;;;;17.13;13.07;;;5.40;99.90;;;;;;5020593;28;20669;-60
2024/03/02 05:19:12;;;;;;;18.10;13.13;;;5.40;99.90;;;;;;5021577;28;20210;-59
2024/03/02 05:21:39;;;;;;;18.93;13.90;;;5.40;99.90;;;;;;5024098;28;20218;-59
2024/03/02 05:24:06;;;;;;;17.80;13.00;;;5.40;99.90;;;;;;5023572;28;20219;-58
2024/03/02 05:26:34;;;;;;;17.37;13.33;;;5.40;99.90;;;;;;5020729;28;20234;-59
2024/03/02 05:29:01;;;;;;;17.57;12.97;;;5.40;99.90;;;;;;5020312;28;20273;-60
2024/03/02 05:31:27;;;;;;;19.63;13.63;;;5.50;99.90;;;;;;5023454;28;20229;-59
2024/03/02 05:33:54;;;;;;;18.37;13.27;;;5.50;99.90;;;;;;5023816;28;20734;-60
2024/03/02 05:36:21;;;;;;;17.80;13.27;;;5.50;99.90;;;;;;5021817;28;20284;-60
2024/03/02 05:38:48;;;;;;;17.57;12.90;;;5.50;99.90;;;;;;5020481;28;20226;-59
2024/03/02 05:41:14;;;;;;;19.27;13.13;;;5.40;99.90;;;;;;5021565;28;20217;-59
2024/03/02 05:43:42;;;;;;;17.07;12.53;;;5.40;99.90;;;;;;5023925;28;20253;-60
2024/03/02 05:46:09;;;;;;;15.93;12.40;;;5.40;99.90;;;;;;5024325;28;20486;-60
2024/03/02 05:48:36;;;;;;;19.57;12.93;;;5.40;99.90;;;;;;5020511;28;20207;-59
2024/03/02 05:51:02;;;;;;;19.87;14.73;;;5.40;99.90;;;;;;5020464;28;20268;-60
2024/03/02 05:53:29;;;;;;;18.07;13.33;;;5.40;99.90;;;;;;5023186;28;20202;-60
2024/03/02 05:55:56;;;;;;;18.73;13.17;;;5.50;99.90;;;;;;5023783;28;20249;-60
2024/03/02 05:58:37;;;;;;;18.90;13.27;;;5.50;99.90;;;;;;5023165;28;20214;-61
2024/03/02 06:01:06;;;;;;;18.73;12.97;;;5.60;99.90;;;;;;5020589;28;20199;-61
2024/03/02 06:03:32;;;;;;;16.50;12.43;;;5.50;99.90;;;;;;5013128;28;20222;-59
2024/03/02 06:05:59;;;;;;;17.37;13.00;;;5.50;99.90;;;;;;5020253;28;20289;-60
2024/03/02 06:08:26;;;;;;;16.33;12.37;;;5.50;99.90;;;;;;5022858;28;20207;-61
2024/03/02 06:10:53;;;;;;;15.33;12.20;;;5.60;99.90;;;;;;5023729;28;20293;-60
2024/03/02 06:13:19;;;;;;;17.03;12.07;;;5.70;99.90;;;;;;5021976;28;20205;-59
2024/03/02 06:15:46;;;;;;;15.97;12.27;;;5.70;99.90;;;;;;5019927;28;20708;-62
2024/03/02 06:18:14;;;;;;;16.80;12.23;;;5.70;99.90;;;;;;5020750;28;20258;-60
2024/03/02 06:20:41;;;;;;;16.03;11.67;;;5.80;99.90;;;;;;5023264;28;20198;-60
2024/03/02 06:23:07;;;;;;;17.37;12.30;;;5.90;99.90;;;;;;5022744;28;20624;-59
2024/03/02 06:25:34;;;;;;;18.03;12.50;;;6.00;99.90;;;;;;5020221;28;20229;-60
2024/03/02 06:28:01;;;;;;;16.57;12.17;;;6.00;99.90;;;;;;5020123;28;20211;-60
2024/03/02 06:30:28;;;;;;;17.67;12.60;;;6.10;99.90;;;;;;5022822;28;20210;-59
2024/03/02 06:32:54;;;;;;;17.13;12.27;;;6.20;99.90;;;;;;5023323;28;20214;-60
2024/03/02 06:35:22;;;;;;;16.13;11.87;;;6.20;99.90;;;;;;5021691;28;20225;-60
2024/03/02 06:37:49;;;;;;;14.93;11.33;;;6.20;99.90;;;;;;5019967;28;20218;-60
2024/03/02 06:40:16;;;;;;;16.20;12.17;;;6.20;99.90;;;;;;5020789;28;20242;-60
2024/03/02 06:42:43;;;;;;;14.57;11.63;;;6.30;99.90;;;;;;5022845;28;20228;-60
2024/03/02 06:45:10;;;;;;;14.37;11.57;;;6.30;99.90;;;;;;5022455;28;20226;-59
2024/03/02 06:47:36;;;;;;;15.77;11.67;;;6.40;99.90;;;;;;5019523;28;20207;-60
2024/03/02 06:50:03;;;;;;;19.23;12.20;;;6.40;99.90;;;;;;5019590;28;20211;-62
2024/03/02 06:52:31;;;;;;;14.53;11.03;;;6.40;99.90;;;;;;5025945;28;20261;-59
2024/03/02 06:54:58;;;;;;;16.10;11.63;;;6.40;99.90;;;;;;5026731;28;20222;-60
2024/03/02 06:57:24;;;;;;;14.63;11.00;;;6.40;99.90;;;;;;5024264;28;20206;-61
2024/03/02 06:59:53;;;;;;;14.47;10.97;;;6.40;99.90;;;;;;5023205;28;20269;-61
2024/03/02 07:02:21;;;;;;;14.80;11.27;;;6.50;99.90;;;;;;5024148;28;20217;-60
2024/03/02 07:04:47;;;;;;;16.10;11.13;;;6.50;99.90;;;;;;5026046;28;20241;-60
2024/03/02 07:07:14;;;;;;;15.83;11.03;;;6.60;99.90;;;;;;5025517;28;20230;-60
2024/03/02 07:09:42;;;;;;;14.00;10.37;;;6.70;99.90;;;;;;5022690;28;20673;-60
2024/03/02 07:12:09;;;;;;;14.13;10.23;;;6.70;99.90;;;;;;5022456;28;20203;-61
2024/03/02 07:17:20;;;;;;;15.27;10.33;;;6.90;99.90;;;;;;5024001;28;20243;-61
2024/03/02 07:19:47;;;;;;;13.47;10.30;;;7.00;99.90;;;;;;5026131;28;20209;-61
2024/03/02 07:22:13;;;;;;;13.90;9.73;;;7.20;99.90;;;;;;5025155;28;20272;-60
2024/03/02 07:24:42;;;;;;;15.77;11.23;;;7.40;99.90;;;;;;5022440;28;20226;-60
2024/03/02 07:27:09;;;;;;;12.00;9.37;;;7.60;99.90;;;;;;5022568;28;20230;-61
2024/03/02 07:29:37;;;;;;;17.37;9.63;;;7.80;99.90;;;;;;5014672;28;20203;-60
2024/03/02 07:32:04;;;;;;;12.23;9.70;;;7.90;99.90;;;;;;5022369;28;20253;-60
2024/03/02 07:34:30;;;;;;;11.93;9.10;;;8.20;99.90;;;;;;5025057;28;20210;-60
2024/03/02 07:36:57;;;;;;;11.63;9.00;;;8.50;99.90;;;;;;5025829;28;20202;-60
2024/03/02 07:39:24;;;;;;;10.60;8.27;;;8.80;99.90;;;;;;5023760;28;20218;-60
2024/03/02 07:41:53;;;;;;;12.60;8.20;;;9.30;99.90;;;;;;5022070;28;20203;-60
2024/03/02 07:44:20;;;;;;;10.07;8.30;;;9.90;99.90;;;;;;5022943;28;20227;-60
2024/03/02 07:46:47;;;;;;;11.90;8.87;;;10.40;99.90;;;;;;5025578;28;20206;-60
2024/03/02 07:49:14;;;;;;;9.17;7.27;;;10.70;99.90;;;;;;5024891;28;20232;-64
2024/03/02 07:51:41;;;;;;;12.17;9.37;;;11.00;99.90;;;;;;5021864;28;20676;-65
2024/03/02 07:54:08;;;;;;;9.17;7.33;;;11.20;99.90;;;;;;5021767;28;20207;-60
2024/03/02 07:56:34;;;;;;;9.17;7.67;;;11.50;99.90;;;;;;5024911;28;20230;-60
2024/03/02 07:59:03;;;;;;;8.77;7.00;;;11.60;99.90;;;;;;5025124;28;20207;-60
2024/03/02 08:01:30;;;;;;;9.03;7.20;;;11.70;99.90;;;;;;5022266;28;20210;-59
2024/03/02 08:03:58;;;;;;;7.87;7.00;;;11.80;99.90;;;;;;5021592;28;20733;-58
2024/03/02 08:06:27;;;;;;;8.17;6.40;;;11.80;99.90;;;;;;5023622;28;20297;-60
2024/03/02 08:08:54;;;;;;;8.73;6.73;;;11.80;99.90;;;;;;5025281;28;20205;-59
2024/03/02 08:11:21;;;;;;;6.93;6.23;;;11.90;99.90;;;;;;5023716;28;20293;-59
2024/03/02 08:13:47;;;;;;;8.23;6.33;;;11.80;99.90;;;;;;5021456;28;20206;-59
2024/03/02 08:16:16;;;;;;;9.00;6.53;;;11.70;99.90;;;;;;5021868;28;20222;-59
2024/03/02 08:18:44;;;;;;;7.30;6.00;;;11.60;99.90;;;;;;5024971;28;20202;-59
2024/03/02 08:21:11;;;;;;;7.43;6.43;;;11.60;99.90;;;;;;5025016;28;20210;-59
2024/03/02 08:23:38;;;;;;;7.27;6.10;;;11.60;99.90;;;;;;5013272;28;20207;-59
2024/03/02 08:26:05;;;;;;;7.87;6.17;;;11.60;99.90;;;;;;5021044;28;20697;-59
2024/03/02 08:28:31;;;;;;;8.67;6.43;;;11.50;99.90;;;;;;5024114;28;20293;-62
2024/03/02 08:30:58;;;;;;;8.00;6.03;;;11.50;99.90;;;;;;5024912;28;20198;-60
2024/03/02 08:33:26;;;;;;;6.90;5.80;;;11.50;99.90;;;;;;5022900;28;20210;-60
2024/03/02 08:35:53;;;;;;;8.07;6.17;;;11.40;99.90;;;;;;5021298;28;20268;-60
2024/03/02 08:38:19;;;;;;;7.10;5.70;;;11.40;99.90;;;;;;5022897;28;20304;-60
2024/03/02 08:40:46;;;;;;;7.13;5.50;;;11.30;99.90;;;;;;5024868;28;20198;-60
2024/03/02 08:43:13;;;;;;;7.60;5.43;;;11.30;99.90;;;;;;5024131;28;20206;-59
2024/03/02 08:45:40;;;;;;;6.57;5.23;;;11.30;99.90;;;;;;5020056;28;20242;-60
2024/03/02 08:48:08;;;;;;;6.43;5.53;;;11.40;99.90;;;;;;5020918;28;20203;-60
2024/03/02 08:50:35;;;;;;;5.80;4.90;;;11.30;99.90;;;;;;5024077;28;20695;-60
2024/03/02 08:53:02;;;;;;;6.33;5.60;;;11.40;99.90;;;;;;5024173;28;20213;-60
2024/03/02 08:55:28;;;;;;;7.40;5.30;;;11.40;99.90;;;;;;5021880;28;20226;-59
2024/03/02 08:57:55;;;;;;;5.93;5.10;;;11.50;99.90;;;;;;5020823;28;20214;-60
2024/03/02 09:00:22;;;;;;;6.60;5.57;;;11.50;99.90;;;;;;5020710;28;20233;-59
2024/03/02 09:02:49;;;;;;;6.90;5.57;;;11.60;99.90;;;;;;5020470;28;20249;-60
2024/03/02 09:05:16;;;;;;;5.80;4.37;;;11.50;99.90;;;;;;5020904;28;20231;-60
2024/03/02 09:07:44;;;;;;;6.90;5.50;;;11.60;99.90;;;;;;5023769;28;20206;-60
2024/03/02 09:10:11;;;;;;;6.77;5.50;;;11.60;99.90;;;;;;5023987;28;20198;-60
2024/03/02 09:12:39;;;;;;;8.43;5.03;;;11.70;99.90;;;;;;5023696;28;20256;-60
2024/03/02 09:15:06;;;;;;;6.23;5.10;;;11.70;99.90;;;;;;5023563;28;20222;-60
2024/03/02 09:17:33;;;;;;;5.70;4.97;;;11.60;99.90;;;;;;5020991;28;20302;-60
2024/03/02 09:20:00;;;;;;;6.43;4.90;;;11.60;99.90;;;;;;5020572;28;20207;-60
2024/03/02 09:22:27;;;;;;;6.30;4.77;;;11.50;99.90;;;;;;5022157;28;20215;-60
2024/03/02 09:24:55;;;;;;;5.50;4.97;;;11.60;99.90;;;;;;5023637;28;20221;-60
2024/03/02 09:27:22;;;;;;;6.00;5.00;;;11.50;99.90;;;;;;5022576;28;20207;-60
2024/03/02 09:29:49;;;;;;;5.30;4.80;;;11.50;99.90;;;;;;5019905;28;20207;-59
2024/03/02 09:32:16;;;;;;;8.17;4.77;;;11.40;99.90;;;;;;5020415;28;20217;-61
2024/03/02 09:34:44;;;;;;;6.13;5.10;;;11.20;99.90;;;;;;5023422;28;20726;-60
2024/03/02 09:37:10;;;;;;;5.97;4.50;;;11.40;99.90;;;;;;5023458;28;20297;-60
2024/03/02 09:39:37;;;;;;;4.80;4.07;;;11.40;99.90;;;;;;5020349;28;20203;-60
2024/03/02 09:42:06;;;;;;;5.93;4.50;;;11.50;99.90;;;;;;5020196;28;20203;-61
2024/03/02 09:47:10;;;;;;;5.47;4.40;;;11.70;99.90;;;;;;5048823;28;20216;-55
2024/03/02 09:49:37;;;;;;;6.60;3.90;;;11.90;99.90;;;;;;5051519;28;20251;-54
2024/03/02 09:52:05;;;;;;;5.37;4.33;;;12.00;99.90;;;;;;5051399;28;20197;-54
2024/03/02 09:54:32;;;;;;;5.03;4.27;;;12.10;99.90;;;;;;5051204;28;20209;-56
2024/03/02 09:56:58;;;;;;;5.80;3.97;;;12.20;99.90;;;;;;5051291;28;20233;-56
2024/03/02 09:59:27;;;;;;;5.67;4.20;;;12.40;99.90;;;;;;5051245;28;20225;-56
2024/03/02 10:01:59;;;;;;;4.30;3.70;;;12.50;99.90;;;;;;5051019;28;20259;-55
2024/03/02 10:04:27;;;;;;;5.13;3.50;;;12.70;99.90;;;;;;5051446;28;20209;-55
2024/03/02 10:07:11;;;;;;;4.50;3.37;;;12.70;99.90;;;;;;5051227;28;20308;-55
2024/03/02 10:09:38;;;;;;;4.63;3.70;;;12.80;99.90;;;;;;5050968;28;20623;-55
2024/03/02 10:12:06;;;;;;;6.43;3.83;;;13.10;99.90;;;;;;5050903;28;20260;-55
2024/03/02 10:14:34;;;;;;;3.50;3.20;;;13.20;99.90;;;;;;5050949;28;20213;-54
2024/03/02 10:17:04;;;;;;;4.63;3.93;;;13.30;99.90;;;;;;5051150;28;20209;-55
2024/03/02 10:19:32;;;;;;;4.20;3.60;;;13.20;99.90;;;;;;5050931;28;20205;-55
2024/03/02 10:22:00;;;;;;;4.00;3.37;;;13.20;99.90;;;;;;5050724;28;20208;-55
2024/03/02 10:24:26;;;;;;;4.50;3.10;;;13.30;99.90;;;;;;5051743;28;20206;-54
2024/03/02 10:26:53;;;;;;;3.97;3.50;;;13.40;99.90;;;;;;5054984;28;20228;-55
2024/03/02 10:29:20;;;;;;;4.27;2.93;;;13.60;99.90;;;;;;5055223;28;20206;-55
2024/03/02 10:31:48;;;;;;;2.90;2.60;;;13.70;99.90;;;;;;5055010;28;20202;-55
2024/03/02 10:34:15;;;;;;;4.87;2.90;;;13.90;99.90;;;;;;5055036;28;20205;-55
2024/03/02 10:36:43;;;;;;;2.63;2.43;;;13.90;99.90;;;;;;5046846;28;20221;-55
2024/03/02 10:39:11;;;;;;;3.97;3.10;;;14.10;99.90;;;;;;5054802;28;20256;-56
2024/03/02 10:41:40;;;;;;;5.60;3.07;;;14.20;99.90;;;;;;5054633;28;20293;-56
2024/03/02 10:44:07;;;;;;;2.73;2.50;;;14.40;99.90;;;;;;5054600;28;20210;-56
2024/03/02 10:46:35;;;;;;;2.83;2.30;;;14.50;99.90;;;;;;5054058;28;20715;-56
2024/03/02 10:49:04;;;;;;;3.33;2.47;;;14.70;99.90;;;;;;5054722;28;20202;-56
2024/03/02 10:51:33;;;;;;;2.43;2.23;;;14.70;99.90;;;;;;5054674;28;20263;-55
2024/03/02 10:54:01;;;;;;;2.77;2.17;;;14.80;99.90;;;;;;5054282;28;20206;-55
2024/03/02 10:56:30;;;;;;;2.43;2.13;;;14.80;99.90;;;;;;5052132;28;20221;-55
2024/03/02 10:59:03;;;;;;;4.97;2.60;;;14.90;99.90;;;;;;5054218;28;20201;-57
2024/03/02 11:01:32;;;;;;;3.20;2.30;;;15.00;99.90;;;;;;5054272;28;20656;-60
2024/03/02 11:04:00;;;;;;;2.90;2.43;;;15.10;99.90;;;;;;5054293;28;20210;-56
2024/03/02 11:06:32;;;;;;;2.00;1.73;;;15.10;99.90;;;;;;5054196;28;20229;-56
2024/03/02 11:09:08;;;;;;;5.20;2.27;;;15.10;99.90;;;;;;5054429;28;20288;-56
2024/03/02 11:11:41;;;;;;;3.80;2.03;;;15.00;99.90;;;;;;5054108;28;20220;-58
2024/03/02 11:14:11;;;;;;;2.38;2.10;;;15.00;99.90;;;;;;5054836;28;20229;-58
2024/03/02 11:16:41;;;;;;;2.30;2.10;;;15.10;99.90;;;;;;5054665;28;20220;-58
2024/03/02 11:19:11;;;;;;;2.27;2.00;;;15.20;99.90;;;;;;5055014;28;20256;-57
2024/03/02 11:21:40;;;;;;;3.45;1.92;;;15.40;99.90;;;;;;5054334;28;20205;-60
2024/03/02 11:24:33;;;;;;;3.13;1.80;;;15.40;99.90;;;;;;5054146;28;20205;-58
2024/03/02 11:27:00;;;;;;;2.78;1.92;;;15.40;99.90;;;;;;5048348;28;20275;-58
2024/03/02 11:29:46;;;;;;;1.85;1.67;;;15.50;99.90;;;;;;5053856;28;20297;-59
2024/03/02 11:32:18;;;;;;;6.22;1.63;;;15.50;99.90;;;;;;5053923;28;20209;-56
2024/03/02 11:34:47;;;;;;;2.00;1.80;;;15.50;99.90;;;;;;5046023;28;20206;-56
2024/03/02 11:37:16;;;;;;;1.60;1.42;;;15.50;99.90;;;;;;5053451;28;20297;-56
2024/03/02 11:39:44;;;;;;;2.17;1.80;;;15.50;99.90;;;;;;5045741;28;20210;-56
2024/03/02 11:42:13;;;;;;;2.00;1.53;;;15.60;99.90;;;;;;5053391;28;20625;-56
2024/03/02 11:44:42;;;;;;;2.20;1.60;;;15.60;99.90;;;;;;5053118;28;20561;-57
2024/03/02 11:47:11;;;;;;;1.77;1.58;;;15.80;99.90;;;;;;5053525;28;20221;-56
2024/03/02 11:49:39;;;;;;;1.77;1.45;;;15.90;99.90;;;;;;5053675;28;20252;-57
2024/03/02 11:52:07;;;;;;;2.97;1.50;;;16.00;99.90;;;;;;5053360;28;20205;-63
2024/03/02 11:54:39;;;;;;;3.83;1.70;;;16.10;99.90;;;;;;5053647;28;20877;-56
2024/03/02 11:57:07;;;;;;;2.58;1.40;;;16.20;99.90;;;;;;5053525;28;20225;-56
2024/03/02 11:59:33;;;;;;;2.25;1.42;;;16.20;99.90;;;;;;5053462;28;20206;-57
2024/03/02 12:02:01;;;;;;;2.83;1.10;;;16.20;99.90;;;;;;5053506;28;20628;-57
2024/03/02 12:04:27;;;;;;;2.53;1.30;;;16.30;99.90;;;;;;5053466;28;20208;-57
2024/03/02 12:07:00;;;;;;;1.15;1.00;;;16.40;99.90;;;;;;5053043;28;20271;-56
2024/03/02 12:09:27;;;;;;;2.25;1.20;;;16.50;99.90;;;;;;5053028;28;20241;-56
2024/03/02 12:12:05;;;;;;;1.85;1.20;;;16.60;99.90;;;;;;5053361;28;20459;-58
2024/03/02 12:14:33;;;;;;;1.50;1.30;;;16.70;99.90;;;;;;5053152;28;20201;-55
2024/03/02 12:16:59;;;;;;;1.60;1.10;;;16.70;99.90;;;;;;5053185;28;20275;-56
2024/03/02 12:19:26;;;;;;;1.77;1.10;;;16.80;99.90;;;;;;5053207;28;20209;-56
2024/03/02 12:21:54;;;;;;;1.20;1.08;;;16.90;99.90;;;;;;5053194;28;20256;-56
2024/03/02 12:24:21;;;;;;;2.80;1.20;;;16.90;99.90;;;;;;5053242;28;20205;-57
2024/03/02 12:26:49;;;;;;;1.88;1.10;;;17.10;99.90;;;;;;5052989;28;20218;-56
2024/03/02 12:29:17;;;;;;;2.75;0.93;;;17.10;99.90;;;;;;5053134;28;20209;-57
2024/03/02 12:31:45;;;;;;;1.48;1.23;;;17.10;99.90;;;;;;5044920;28;20214;-57
2024/03/02 12:34:14;;;;;;;1.80;1.30;;;17.00;99.90;;;;;;5052512;28;20208;-57
2024/03/02 12:36:41;;;;;;;1.55;1.45;;;16.80;99.90;;;;;;5052932;28;20267;-56
2024/03/02 12:39:09;;;;;;;2.80;2.10;;;17.00;99.90;;;;;;5052761;28;20582;-56
2024/03/02 12:41:37;;;;;;;2.53;1.75;;;17.10;99.90;;;;;;5052653;28;20470;-56
2024/03/02 12:44:03;;;;;;;1.85;1.35;;;17.10;99.90;;;;;;5052538;28;20675;-56
2024/03/02 12:46:32;;;;;;;1.60;1.50;;;17.30;99.90;;;;;;5051991;28;20232;-56
2024/03/02 12:48:58;;;;;;;2.00;1.23;;;17.60;99.90;;;;;;5051450;28;20251;-56
2024/03/02 12:51:25;;;;;;;1.50;1.20;;;17.60;99.90;;;;;;5052257;28;20209;-56